Yuho Maru No.3 — JD2491 — position and weather

sailwx.info

Track history (hours):
 
Tides and Currents Weather Stations Pressure Air Temp Water Temp Dewpoint Dewpoint Depression Visibility Wind Speed Wind Dir Waves Ship Positions

Yuho Maru No.3

Last reported at 2017-Oct-22 00:04 UTC. Time now 2017-Oct-22 10:21 UTC.
Position N 35°30' E 140°00'.

Length 65 m; draft 3.9 m.

Type: Tanker. MMSI: 431000336.

Date/timePositionNaut miles runAvg speedWind from/ knotsBaromVisibWave heightAir tempDewpointWater temp
2017-Oct-22 00:04N 35°30' E 140°00'0 0.2
2017-Oct-21 23:56N 35°30' E 140°00'7 0.4
2017-Oct-21 05:13N 35°36' E 139°55'312.8
2017-Oct-21 05:00N 35°36' E 139°51'2 3.0
2017-Oct-21 04:29N 35°37' E 139°50'0 0.2
2017-Oct-21 04:00N 35°37' E 139°50'3 5.7
2017-Oct-21 03:25N 35°35' E 139°53'6 1.1
2017-Oct-20 21:52N 35°30' E 139°50'0 0.2
2017-Oct-20 21:30N 35°30' E 139°50'0 0.0
2017-Oct-20 21:00N 35°30' E 139°50'0 0.0
2017-Oct-20 20:30N 35°30' E 139°50'0 0.0
2017-Oct-20 20:00N 35°30' E 139°50'0 0.0
2017-Oct-20 19:30N 35°30' E 139°50'0 0.0
2017-Oct-20 19:00N 35°30' E 139°50'0 0.0
2017-Oct-20 18:30N 35°30' E 139°50'0 0.0
2017-Oct-20 18:00N 35°30' E 139°50'0 0.0
2017-Oct-20 17:30N 35°30' E 139°50'0 0.0
2017-Oct-20 17:00N 35°30' E 139°50'0 0.0
2017-Oct-20 16:30N 35°30' E 139°50'0 0.0
2017-Oct-20 16:00N 35°30' E 139°50'0 0.0
2017-Oct-20 15:30N 35°30' E 139°50'0 0.0
2017-Oct-20 15:00N 35°30' E 139°50'0 0.0
2017-Oct-20 14:30N 35°30' E 139°50'0 0.0
2017-Oct-20 13:30N 35°30' E 139°50'0 0.0
2017-Oct-20 13:00N 35°30' E 139°50'0 0.0
2017-Oct-20 12:30N 35°30' E 139°50'0 0.0
2017-Oct-20 12:00N 35°30' E 139°50'0 0.0
2017-Oct-20 11:30N 35°30' E 139°50'0 0.0
2017-Oct-20 11:00N 35°30' E 139°50'0 0.0
2017-Oct-20 10:30N 35°30' E 139°50'0 0.0
2017-Oct-20 10:00N 35°30' E 139°50'0 0.0
2017-Oct-20 09:30N 35°30' E 139°50'0 0.0
2017-Oct-20 09:00N 35°30' E 139°50'0 0.0
2017-Oct-20 08:30N 35°30' E 139°50'0 0.1
2017-Oct-20 08:00N 35°30' E 139°50'0 0.0
2017-Oct-20 07:29N 35°30' E 139°50'0 0.0
2017-Oct-20 07:00N 35°30' E 139°50'7 0.3
2017-Oct-19 05:49N 35°31' E 139°59'0 0.0
2017-Oct-19 03:23N 35°31' E 139°59'8 0.2
2017-Oct-17 17:05N 35°36' E 140°06'0 0.0
2017-Oct-17 16:48N 35°36' E 140°06'15 0.8
2017-Oct-16 23:01N 35°30' E 139°50'112.3
2017-Oct-16 22:59N 35°29' E 139°49'511.4
2017-Oct-16 22:30N 35°26' E 139°44'3 6.8
2017-Oct-16 22:00N 35°27' E 139°40'0 0.0
2017-Oct-16 21:30N 35°27' E 139°40'0 0.0
2017-Oct-16 21:00N 35°27' E 139°40'0 0.1
2017-Oct-16 20:30N 35°27' E 139°40'0 0.1
2017-Oct-16 20:00N 35°27' E 139°40'0 0.0
2017-Oct-16 19:30N 35°27' E 139°40'0 0.0
2017-Oct-16 19:00N 35°27' E 139°40'0 0.0
2017-Oct-16 18:30N 35°27' E 139°40'0 0.0
2017-Oct-16 18:00N 35°27' E 139°40'0 0.0
2017-Oct-16 17:30N 35°27' E 139°40'0 0.0
2017-Oct-16 17:00N 35°27' E 139°40'0 0.0
2017-Oct-16 16:30N 35°27' E 139°40'0 0.0
2017-Oct-16 16:00N 35°27' E 139°40'0 0.0
2017-Oct-16 15:30N 35°27' E 139°40'0 0.0
2017-Oct-16 15:00N 35°27' E 139°40'0 0.0
2017-Oct-16 14:30N 35°27' E 139°40'0 0.0
2017-Oct-16 13:30N 35°27' E 139°40'0 0.0
2017-Oct-16 13:00N 35°27' E 139°40'0 0.0
2017-Oct-16 12:30N 35°27' E 139°40'0 0.0
2017-Oct-16 12:00N 35°27' E 139°40'0 0.0
2017-Oct-16 11:30N 35°27' E 139°40'0 0.0
2017-Oct-16 11:00N 35°27' E 139°40'0 0.0
2017-Oct-16 10:30N 35°27' E 139°40'0 0.0
2017-Oct-16 10:00N 35°27' E 139°40'0 0.0
2017-Oct-16 09:30N 35°27' E 139°40'0 0.0
2017-Oct-16 09:00N 35°27' E 139°40'0 0.0
2017-Oct-16 08:30N 35°27' E 139°40'0 0.0
2017-Oct-16 08:00N 35°27' E 139°40'0 0.0
2017-Oct-16 07:30N 35°27' E 139°40'0 0.0
2017-Oct-16 07:00N 35°27' E 139°40'0 0.0
2017-Oct-16 06:30N 35°27' E 139°40'0 0.0
2017-Oct-16 06:00N 35°27' E 139°40'0 0.0
2017-Oct-16 05:30N 35°27' E 139°40'0 0.0
2017-Oct-16 05:00N 35°27' E 139°40'0 0.0
2017-Oct-16 04:30N 35°27' E 139°40'0 0.0
2017-Oct-16 04:00N 35°27' E 139°40'0 0.0
2017-Oct-16 03:30N 35°27' E 139°40'0 0.0
2017-Oct-16 03:01N 35°27' E 139°40'2 4.9
2017-Oct-16 02:30N 35°27' E 139°43'0 0.0
2017-Oct-16 02:00N 35°27' E 139°43'0 0.3
2017-Oct-16 01:30N 35°27' E 139°43'2 3.7
2017-Oct-16 01:00N 35°27' E 139°45'0 0.0
2017-Oct-16 00:30N 35°27' E 139°45'0 0.0
2017-Oct-16 00:00N 35°27' E 139°45'0 0.0
2017-Oct-15 23:30N 35°27' E 139°45'0 0.0
2017-Oct-15 23:00N 35°27' E 139°45'0 0.0
2017-Oct-15 22:30N 35°27' E 139°45'0 0.0
2017-Oct-15 22:00N 35°27' E 139°45'3 5.7
2017-Oct-15 21:30N 35°29' E 139°48'0 1.0
2017-Oct-15 21:00N 35°29' E 139°49'0 0.0
2017-Oct-15 20:30N 35°29' E 139°49'0 0.0
2017-Oct-15 20:00N 35°29' E 139°49'0 0.0
2017-Oct-15 19:30N 35°29' E 139°49'0 0.0
2017-Oct-15 19:00N 35°29' E 139°49'0 0.0
2017-Oct-15 18:30N 35°29' E 139°49'0 0.0
2017-Oct-15 18:00N 35°29' E 139°49'0 0.0
2017-Oct-15 17:30N 35°29' E 139°49'0 0.0
2017-Oct-15 17:00N 35°29' E 139°49'0 0.0
2017-Oct-15 16:30N 35°29' E 139°49'0 0.0
2017-Oct-15 16:00N 35°29' E 139°49'0 0.0
2017-Oct-15 15:30N 35°29' E 139°49'0 0.1
2017-Oct-15 15:00N 35°29' E 139°49'0 0.0
2017-Oct-15 14:00N 35°29' E 139°49'0 0.1
2017-Oct-15 13:30N 35°29' E 139°49'0 0.0
2017-Oct-15 13:00N 35°29' E 139°49'0 0.1
2017-Oct-15 12:30N 35°29' E 139°49'0 0.0
2017-Oct-15 12:00N 35°29' E 139°49'0 0.0
2017-Oct-15 11:30N 35°29' E 139°49'0 0.0
2017-Oct-15 11:00N 35°29' E 139°49'0 0.0
2017-Oct-15 10:30N 35°29' E 139°49'0 0.0
2017-Oct-15 10:00N 35°29' E 139°49'0 0.0
2017-Oct-15 09:30N 35°29' E 139°49'0 0.0
2017-Oct-15 09:00N 35°29' E 139°49'0 0.0
2017-Oct-15 08:30N 35°29' E 139°49'0 0.0
2017-Oct-15 08:00N 35°29' E 139°49'0 0.0
2017-Oct-15 07:30N 35°29' E 139°49'0 0.0
2017-Oct-15 07:00N 35°29' E 139°49'0 0.0
2017-Oct-15 06:30N 35°29' E 139°49'0 0.0
2017-Oct-15 06:00N 35°29' E 139°49'1 2.1
2017-Oct-15 05:30N 35°29' E 139°50'612.7
2017-Oct-15 05:00N 35°32' E 139°57'7 0.3
2017-Oct-14 09:19N 35°33' E 140°05'0 0.0
2017-Oct-14 04:12N 35°33' E 140°05'1410.6
2017-Oct-14 02:53N 35°30' E 139°48'2 5.3
2017-Oct-14 02:30N 35°31' E 139°46'0 0.0
2017-Oct-14 02:00N 35°31' E 139°46'0 0.0
2017-Oct-14 01:30N 35°31' E 139°46'0 0.0
2017-Oct-14 01:00N 35°31' E 139°46'0 0.0
2017-Oct-14 00:30N 35°31' E 139°46'0 0.0
2017-Oct-14 00:00N 35°31' E 139°46'0 0.0
2017-Oct-13 23:30N 35°31' E 139°46'0 0.0
2017-Oct-13 23:00N 35°31' E 139°46'0 0.0
2017-Oct-13 22:30N 35°31' E 139°46'0 0.0
2017-Oct-13 22:00N 35°31' E 139°46'1 1.6
2017-Oct-13 21:30N 35°31' E 139°46'610.7
2017-Oct-13 20:59N 35°32' E 139°53'5 0.3
2017-Oct-13 04:36N 35°30' E 139°48'112.7
2017-Oct-13 04:30N 35°30' E 139°47'1 1.5
2017-Oct-13 03:59N 35°31' E 139°46'0 0.0
2017-Oct-13 03:30N 35°31' E 139°46'0 0.0
2017-Oct-13 03:00N 35°31' E 139°46'0 0.0
2017-Oct-13 02:30N 35°31' E 139°46'0 0.1
2017-Oct-13 02:01N 35°31' E 139°46'4 7.2
2017-Oct-13 01:30N 35°27' E 139°45'0 0.5
2017-Oct-13 00:59N 35°27' E 139°45'0 0.0
2017-Oct-13 00:30N 35°27' E 139°45'0 0.1
2017-Oct-13 00:00N 35°27' E 139°45'0 0.0
2017-Oct-12 23:30N 35°27' E 139°45'0 0.1
2017-Oct-12 23:00N 35°27' E 139°45'0 0.0
2017-Oct-12 22:30N 35°27' E 139°45'0 0.4
2017-Oct-12 22:00N 35°27' E 139°45'3 5.6
2017-Oct-12 21:29N 35°28' E 139°48'0 0.1
2017-Oct-12 21:00N 35°28' E 139°48'0 0.0
2017-Oct-12 20:30N 35°28' E 139°48'0 0.0
2017-Oct-12 20:00N 35°28' E 139°48'0 0.0
2017-Oct-12 19:30N 35°28' E 139°48'0 0.0
2017-Oct-12 19:00N 35°28' E 139°48'0 0.0
2017-Oct-12 18:30N 35°28' E 139°48'0 0.0
2017-Oct-12 18:00N 35°28' E 139°48'0 0.0
2017-Oct-12 17:30N 35°28' E 139°48'0 0.0
2017-Oct-12 17:00N 35°28' E 139°48'0 0.0
2017-Oct-12 16:30N 35°28' E 139°48'0 0.1
2017-Oct-12 16:00N 35°28' E 139°48'0 0.0
2017-Oct-12 15:30N 35°28' E 139°48'0 0.0
2017-Oct-12 15:00N 35°28' E 139°48'0 0.0
2017-Oct-12 14:30N 35°28' E 139°48'0 0.0
2017-Oct-12 14:00N 35°28' E 139°48'0 0.0
2017-Oct-12 13:30N 35°28' E 139°48'0 0.1
2017-Oct-12 13:00N 35°29' E 139°48'0 0.0
2017-Oct-12 12:30N 35°29' E 139°48'0 0.0
2017-Oct-12 12:00N 35°29' E 139°48'1 1.3
2017-Oct-12 11:30N 35°29' E 139°49'612.4
2017-Oct-12 10:59N 35°30' E 139°56'  
Track history (hours):
 
Tides and Currents Weather Stations Pressure Air Temp Water Temp Dewpoint Dewpoint Depression Visibility Wind Speed Wind Dir Waves Ship Positions

Yuho Maru No.3

Last reported at 2017-Oct-22 00:04 UTC. Time now 2017-Oct-22 10:21 UTC.
Position N 35°30' E 140°00'.

Length 65 m; draft 3.9 m.

Type: Tanker. MMSI: 431000336.

Date/timePositionNaut miles runAvg speedWind from/ knotsBaromVisibWave heightAir tempDewpointWater temp
2017-Oct-22 00:04N 35°30' E 140°00'0 0.2
2017-Oct-21 23:56N 35°30' E 140°00'7 0.4
2017-Oct-21 05:13N 35°36' E 139°55'312.8
2017-Oct-21 05:00N 35°36' E 139°51'2 3.0
2017-Oct-21 04:29N 35°37' E 139°50'0 0.2
2017-Oct-21 04:00N 35°37' E 139°50'3 5.7
2017-Oct-21 03:25N 35°35' E 139°53'6 1.1
2017-Oct-20 21:52N 35°30' E 139°50'0 0.2
2017-Oct-20 21:30N 35°30' E 139°50'0 0.0
2017-Oct-20 21:00N 35°30' E 139°50'0 0.0
2017-Oct-20 20:30N 35°30' E 139°50'0 0.0
2017-Oct-20 20:00N 35°30' E 139°50'0 0.0
2017-Oct-20 19:30N 35°30' E 139°50'0 0.0
2017-Oct-20 19:00N 35°30' E 139°50'0 0.0
2017-Oct-20 18:30N 35°30' E 139°50'0 0.0
2017-Oct-20 18:00N 35°30' E 139°50'0 0.0
2017-Oct-20 17:30N 35°30' E 139°50'0 0.0
2017-Oct-20 17:00N 35°30' E 139°50'0 0.0
2017-Oct-20 16:30N 35°30' E 139°50'0 0.0
2017-Oct-20 16:00N 35°30' E 139°50'0 0.0
2017-Oct-20 15:30N 35°30' E 139°50'0 0.0
2017-Oct-20 15:00N 35°30' E 139°50'0 0.0
2017-Oct-20 14:30N 35°30' E 139°50'0 0.0
2017-Oct-20 13:30N 35°30' E 139°50'0 0.0
2017-Oct-20 13:00N 35°30' E 139°50'0 0.0
2017-Oct-20 12:30N 35°30' E 139°50'0 0.0
2017-Oct-20 12:00N 35°30' E 139°50'0 0.0
2017-Oct-20 11:30N 35°30' E 139°50'0 0.0
2017-Oct-20 11:00N 35°30' E 139°50'0 0.0
2017-Oct-20 10:30N 35°30' E 139°50'0 0.0
2017-Oct-20 10:00N 35°30' E 139°50'0 0.0
2017-Oct-20 09:30N 35°30' E 139°50'0 0.0
2017-Oct-20 09:00N 35°30' E 139°50'0 0.0
2017-Oct-20 08:30N 35°30' E 139°50'0 0.1
2017-Oct-20 08:00N 35°30' E 139°50'0 0.0
2017-Oct-20 07:29N 35°30' E 139°50'0 0.0
2017-Oct-20 07:00N 35°30' E 139°50'7 0.3
2017-Oct-19 05:49N 35°31' E 139°59'0 0.0
2017-Oct-19 03:23N 35°31' E 139°59'8 0.2
2017-Oct-17 17:05N 35°36' E 140°06'0 0.0
2017-Oct-17 16:48N 35°36' E 140°06'15 0.8
2017-Oct-16 23:01N 35°30' E 139°50'112.3
2017-Oct-16 22:59N 35°29' E 139°49'511.4
2017-Oct-16 22:30N 35°26' E 139°44'3 6.8
2017-Oct-16 22:00N 35°27' E 139°40'0 0.0
2017-Oct-16 21:30N 35°27' E 139°40'0 0.0
2017-Oct-16 21:00N 35°27' E 139°40'0 0.1
2017-Oct-16 20:30N 35°27' E 139°40'0 0.1
2017-Oct-16 20:00N 35°27' E 139°40'0 0.0
2017-Oct-16 19:30N 35°27' E 139°40'0 0.0
2017-Oct-16 19:00N 35°27' E 139°40'0 0.0
2017-Oct-16 18:30N 35°27' E 139°40'0 0.0
2017-Oct-16 18:00N 35°27' E 139°40'0 0.0
2017-Oct-16 17:30N 35°27' E 139°40'0 0.0
2017-Oct-16 17:00N 35°27' E 139°40'0 0.0
2017-Oct-16 16:30N 35°27' E 139°40'0 0.0
2017-Oct-16 16:00N 35°27' E 139°40'0 0.0
2017-Oct-16 15:30N 35°27' E 139°40'0 0.0
2017-Oct-16 15:00N 35°27' E 139°40'0 0.0
2017-Oct-16 14:30N 35°27' E 139°40'0 0.0
2017-Oct-16 13:30N 35°27' E 139°40'0 0.0
2017-Oct-16 13:00N 35°27' E 139°40'0 0.0
2017-Oct-16 12:30N 35°27' E 139°40'0 0.0
2017-Oct-16 12:00N 35°27' E 139°40'0 0.0
2017-Oct-16 11:30N 35°27' E 139°40'0 0.0
2017-Oct-16 11:00N 35°27' E 139°40'0 0.0
2017-Oct-16 10:30N 35°27' E 139°40'0 0.0
2017-Oct-16 10:00N 35°27' E 139°40'0 0.0
2017-Oct-16 09:30N 35°27' E 139°40'0 0.0
2017-Oct-16 09:00N 35°27' E 139°40'0 0.0
2017-Oct-16 08:30N 35°27' E 139°40'0 0.0
2017-Oct-16 08:00N 35°27' E 139°40'0 0.0
2017-Oct-16 07:30N 35°27' E 139°40'0 0.0
2017-Oct-16 07:00N 35°27' E 139°40'0 0.0
2017-Oct-16 06:30N 35°27' E 139°40'0 0.0
2017-Oct-16 06:00N 35°27' E 139°40'0 0.0
2017-Oct-16 05:30N 35°27' E 139°40'0 0.0
2017-Oct-16 05:00N 35°27' E 139°40'0 0.0
2017-Oct-16 04:30N 35°27' E 139°40'0 0.0
2017-Oct-16 04:00N 35°27' E 139°40'0 0.0
2017-Oct-16 03:30N 35°27' E 139°40'0 0.0
2017-Oct-16 03:01N 35°27' E 139°40'2 4.9
2017-Oct-16 02:30N 35°27' E 139°43'0 0.0
2017-Oct-16 02:00N 35°27' E 139°43'0 0.3
2017-Oct-16 01:30N 35°27' E 139°43'2 3.7
2017-Oct-16 01:00N 35°27' E 139°45'0 0.0
2017-Oct-16 00:30N 35°27' E 139°45'0 0.0
2017-Oct-16 00:00N 35°27' E 139°45'0 0.0
2017-Oct-15 23:30N 35°27' E 139°45'0 0.0
2017-Oct-15 23:00N 35°27' E 139°45'0 0.0
2017-Oct-15 22:30N 35°27' E 139°45'0 0.0
2017-Oct-15 22:00N 35°27' E 139°45'3 5.7
2017-Oct-15 21:30N 35°29' E 139°48'0 1.0
2017-Oct-15 21:00N 35°29' E 139°49'0 0.0
2017-Oct-15 20:30N 35°29' E 139°49'0 0.0
2017-Oct-15 20:00N 35°29' E 139°49'0 0.0
2017-Oct-15 19:30N 35°29' E 139°49'0 0.0
2017-Oct-15 19:00N 35°29' E 139°49'0 0.0
2017-Oct-15 18:30N 35°29' E 139°49'0 0.0
2017-Oct-15 18:00N 35°29' E 139°49'0 0.0
2017-Oct-15 17:30N 35°29' E 139°49'0 0.0
2017-Oct-15 17:00N 35°29' E 139°49'0 0.0
2017-Oct-15 16:30N 35°29' E 139°49'0 0.0
2017-Oct-15 16:00N 35°29' E 139°49'0 0.0
2017-Oct-15 15:30N 35°29' E 139°49'0 0.1
2017-Oct-15 15:00N 35°29' E 139°49'0 0.0
2017-Oct-15 14:00N 35°29' E 139°49'0 0.1
2017-Oct-15 13:30N 35°29' E 139°49'0 0.0
2017-Oct-15 13:00N 35°29' E 139°49'0 0.1
2017-Oct-15 12:30N 35°29' E 139°49'0 0.0
2017-Oct-15 12:00N 35°29' E 139°49'0 0.0
2017-Oct-15 11:30N 35°29' E 139°49'0 0.0
2017-Oct-15 11:00N 35°29' E 139°49'0 0.0
2017-Oct-15 10:30N 35°29' E 139°49'0 0.0
2017-Oct-15 10:00N 35°29' E 139°49'0 0.0
2017-Oct-15 09:30N 35°29' E 139°49'0 0.0
2017-Oct-15 09:00N 35°29' E 139°49'0 0.0
2017-Oct-15 08:30N 35°29' E 139°49'0 0.0
2017-Oct-15 08:00N 35°29' E 139°49'0 0.0
2017-Oct-15 07:30N 35°29' E 139°49'0 0.0
2017-Oct-15 07:00N 35°29' E 139°49'0 0.0
2017-Oct-15 06:30N 35°29' E 139°49'0 0.0
2017-Oct-15 06:00N 35°29' E 139°49'1 2.1
2017-Oct-15 05:30N 35°29' E 139°50'612.7
2017-Oct-15 05:00N 35°32' E 139°57'7 0.3
2017-Oct-14 09:19N 35°33' E 140°05'0 0.0
2017-Oct-14 04:12N 35°33' E 140°05'1410.6
2017-Oct-14 02:53N 35°30' E 139°48'2 5.3
2017-Oct-14 02:30N 35°31' E 139°46'0 0.0
2017-Oct-14 02:00N 35°31' E 139°46'0 0.0
2017-Oct-14 01:30N 35°31' E 139°46'0 0.0
2017-Oct-14 01:00N 35°31' E 139°46'0 0.0
2017-Oct-14 00:30N 35°31' E 139°46'0 0.0
2017-Oct-14 00:00N 35°31' E 139°46'0 0.0
2017-Oct-13 23:30N 35°31' E 139°46'0 0.0
2017-Oct-13 23:00N 35°31' E 139°46'0 0.0
2017-Oct-13 22:30N 35°31' E 139°46'0 0.0
2017-Oct-13 22:00N 35°31' E 139°46'1 1.6
2017-Oct-13 21:30N 35°31' E 139°46'610.7
2017-Oct-13 20:59N 35°32' E 139°53'5 0.3
2017-Oct-13 04:36N 35°30' E 139°48'112.7
2017-Oct-13 04:30N 35°30' E 139°47'1 1.5
2017-Oct-13 03:59N 35°31' E 139°46'0 0.0
2017-Oct-13 03:30N 35°31' E 139°46'0 0.0
2017-Oct-13 03:00N 35°31' E 139°46'0 0.0
2017-Oct-13 02:30N 35°31' E 139°46'0 0.1
2017-Oct-13 02:01N 35°31' E 139°46'4 7.2
2017-Oct-13 01:30N 35°27' E 139°45'0 0.5
2017-Oct-13 00:59N 35°27' E 139°45'0 0.0
2017-Oct-13 00:30N 35°27' E 139°45'0 0.1
2017-Oct-13 00:00N 35°27' E 139°45'0 0.0
2017-Oct-12 23:30N 35°27' E 139°45'0 0.1
2017-Oct-12 23:00N 35°27' E 139°45'0 0.0
2017-Oct-12 22:30N 35°27' E 139°45'0 0.4
2017-Oct-12 22:00N 35°27' E 139°45'3 5.6
2017-Oct-12 21:29N 35°28' E 139°48'0 0.1
2017-Oct-12 21:00N 35°28' E 139°48'0 0.0
2017-Oct-12 20:30N 35°28' E 139°48'0 0.0
2017-Oct-12 20:00N 35°28' E 139°48'0 0.0
2017-Oct-12 19:30N 35°28' E 139°48'0 0.0
2017-Oct-12 19:00N 35°28' E 139°48'0 0.0
2017-Oct-12 18:30N 35°28' E 139°48'0 0.0
2017-Oct-12 18:00N 35°28' E 139°48'0 0.0
2017-Oct-12 17:30N 35°28' E 139°48'0 0.0
2017-Oct-12 17:00N 35°28' E 139°48'0 0.0
2017-Oct-12 16:30N 35°28' E 139°48'0 0.1
2017-Oct-12 16:00N 35°28' E 139°48'0 0.0
2017-Oct-12 15:30N 35°28' E 139°48'0 0.0
2017-Oct-12 15:00N 35°28' E 139°48'0 0.0
2017-Oct-12 14:30N 35°28' E 139°48'0 0.0
2017-Oct-12 14:00N 35°28' E 139°48'0 0.0
2017-Oct-12 13:30N 35°28' E 139°48'0 0.1
2017-Oct-12 13:00N 35°29' E 139°48'0 0.0
2017-Oct-12 12:30N 35°29' E 139°48'0 0.0
2017-Oct-12 12:00N 35°29' E 139°48'1 1.3
2017-Oct-12 11:30N 35°29' E 139°49'612.4
2017-Oct-12 10:59N 35°30' E 139°56'  

Dump ship's entire track history